Ellenville, New York
Current Conditions -  °F | °C
As of 3:54 AM on Saturday 25 Oct 2014 (Local Time) from KMGJ Reporting Station
Clear Clear  
Wind Chill:   Ceiling: Unl
Heat Index:   Visibility: 10mi
Dew Point:   Wind: 7mph
Humidity: 61%   Direction: 290°WNW
Pressure: 29.84"   Gusts: NA
Location:  41.72°N, 74.4°W
Report Text: KMGJ 250754Z AUTO 29006KT 10SM CLR 09/02 A2984 RMK AO2 SLP105 T00940022 TSNO
Loading
Personal Weather Stations






























Interactive Weather Map
Tropical Storm Tracking
New forecast layout! Learn more

10-Day Weather Forecast

Advertisements
Track Severe Weather on mobile